createdAt,value
2023-02-16T00:04:27.170Z,7.00
2023-02-16T00:06:55.738Z,6.20
2023-02-16T00:09:24.331Z,6.10
2023-02-16T00:12:11.590Z,7.40
2023-02-16T00:14:41.592Z,6.40
2023-02-16T00:17:10.565Z,6.00
2023-02-16T00:19:40.125Z,5.10
2023-02-16T00:22:08.771Z,5.70
2023-02-16T00:24:38.066Z,4.70
2023-02-16T00:27:14.304Z,5.80
2023-02-16T00:29:44.779Z,6.40
2023-02-16T00:32:14.923Z,7.50
2023-02-16T00:34:46.663Z,6.90
2023-02-16T00:37:16.468Z,8.50
2023-02-16T00:39:45.463Z,5.20
2023-02-16T00:42:19.220Z,5.60
2023-02-16T00:44:49.143Z,7.20
2023-02-16T00:49:48.297Z,8.00
2023-02-16T00:52:18.637Z,7.00
2023-02-16T00:54:47.226Z,7.20
2023-02-16T00:57:17.349Z,6.70
2023-02-16T00:59:46.346Z,4.50
2023-02-16T01:02:15.856Z,6.40
2023-02-16T01:04:44.509Z,4.20
2023-02-16T01:07:32.174Z,5.60
2023-02-16T01:10:19.396Z,6.20
2023-02-16T01:12:47.776Z,6.10
2023-02-16T01:15:16.976Z,7.40
2023-02-16T01:17:45.460Z,7.30
2023-02-16T01:20:21.659Z,8.00
2023-02-16T01:22:50.109Z,7.60
2023-02-16T01:25:22.698Z,5.80
2023-02-16T01:27:51.482Z,7.90
2023-02-16T01:30:21.376Z,6.70
2023-02-16T01:32:52.953Z,7.20
2023-02-16T01:35:29.838Z,8.20
2023-02-16T01:37:58.115Z,6.10
2023-02-16T01:40:30.391Z,7.10
2023-02-16T01:43:20.081Z,6.10
2023-02-16T01:45:55.006Z,7.20
2023-02-16T01:48:28.103Z,6.50
2023-02-16T01:51:29.966Z,6.00
2023-02-16T01:54:23.339Z,6.50
2023-02-16T01:57:00.625Z,8.40
2023-02-16T01:59:53.605Z,8.20
2023-02-16T02:04:59.568Z,8.20
2023-02-16T02:07:32.253Z,5.80
2023-02-16T02:10:21.931Z,6.60
2023-02-16T02:12:59.972Z,8.30
2023-02-16T02:15:29.957Z,8.80
2023-02-16T02:17:58.953Z,7.30
2023-02-16T02:20:50.381Z,6.90
2023-02-16T02:23:33.399Z,7.00
2023-02-16T02:26:39.063Z,6.10
2023-02-16T02:29:12.250Z,8.20
2023-02-16T02:32:09.991Z,8.10
2023-02-16T02:34:54.177Z,5.80
2023-02-16T02:37:50.720Z,7.10
2023-02-16T02:40:42.044Z,6.70
2023-02-16T02:43:13.808Z,7.60
2023-02-16T02:46:04.092Z,6.90
2023-02-16T02:48:33.395Z,9.10
2023-02-16T02:51:27.189Z,10.00
2023-02-16T02:54:26.280Z,8.70
2023-02-16T02:57:40.484Z,6.30
2023-02-16T03:00:39.674Z,7.20
2023-02-16T03:03:36.511Z,7.80
2023-02-16T03:06:06.566Z,5.90
2023-02-16T03:11:31.228Z,9.80
2023-02-16T03:14:27.249Z,6.20
2023-02-16T03:17:19.388Z,6.40
2023-02-16T03:20:09.474Z,6.70
2023-02-16T03:22:57.105Z,7.30
2023-02-16T03:25:47.909Z,8.20
2023-02-16T03:28:35.239Z,8.50
2023-02-16T03:31:04.553Z,7.70
2023-02-16T03:33:33.323Z,8.60
2023-02-16T03:36:01.706Z,6.70
2023-02-16T03:38:33.157Z,6.90
2023-02-16T03:41:01.982Z,6.50
2023-02-16T03:43:30.846Z,10.10
2023-02-16T03:45:59.250Z,6.40
2023-02-16T03:48:27.814Z,8.20
2023-02-16T03:50:56.592Z,10.10
2023-02-16T03:53:25.382Z,7.30
2023-02-16T03:55:54.802Z,7.90
2023-02-16T03:58:25.332Z,8.10
2023-02-16T04:00:53.906Z,7.70
2023-02-16T04:03:22.814Z,7.20
2023-02-16T04:05:54.457Z,8.40
2023-02-16T04:08:23.861Z,6.60
2023-02-16T04:10:55.727Z,8.00
2023-02-16T04:13:24.723Z,9.50
2023-02-16T04:15:53.105Z,9.90
2023-02-16T04:18:21.484Z,7.40
2023-02-16T04:20:50.379Z,7.30
2023-02-16T04:23:18.962Z,6.30
2023-02-16T04:25:47.648Z,7.70
2023-02-16T04:28:16.039Z,8.10
2023-02-16T04:30:44.495Z,7.40
2023-02-16T04:33:13.025Z,6.20
2023-02-16T04:35:41.578Z,9.40
2023-02-16T04:38:13.133Z,9.90
2023-02-16T04:40:42.232Z,9.70
2023-02-16T04:43:10.613Z,7.50
2023-02-16T04:45:38.994Z,7.70
2023-02-16T04:48:07.371Z,9.70
2023-02-16T04:50:36.170Z,9.80
2023-02-16T04:53:04.543Z,6.90
2023-02-16T04:55:33.025Z,7.90
2023-02-16T04:58:01.309Z,9.20
2023-02-16T05:00:30.705Z,8.90
2023-02-16T05:02:59.085Z,7.90
2023-02-16T05:05:27.775Z,6.90
2023-02-16T05:07:56.155Z,11.30
2023-02-16T05:10:24.642Z,10.70
2023-02-16T05:13:12.612Z,11.30
2023-02-16T05:15:45.451Z,11.60
2023-02-16T05:18:19.280Z,14.90
2023-02-16T05:21:12.943Z,15.70
2023-02-16T05:23:42.358Z,13.70
2023-02-16T05:26:10.736Z,13.30
2023-02-16T05:28:40.545Z,10.90
2023-02-16T05:31:09.034Z,9.20
2023-02-16T05:33:38.429Z,9.10
2023-02-16T05:36:07.067Z,9.70
2023-02-16T05:38:36.323Z,8.70
2023-02-16T05:41:05.116Z,10.60
2023-02-16T05:46:08.604Z,9.40
2023-02-16T05:48:37.935Z,8.00
2023-02-16T05:51:06.823Z,10.90
2023-02-16T05:53:35.415Z,9.90
2023-02-16T05:56:05.431Z,9.70
2023-02-16T05:58:36.582Z,7.60
2023-02-16T06:01:05.612Z,7.90
2023-02-16T06:03:36.073Z,7.70
2023-02-16T06:06:05.409Z,7.30
2023-02-16T06:08:36.798Z,8.90
2023-02-16T06:11:07.242Z,7.70
2023-02-16T06:13:40.889Z,7.50
2023-02-16T06:16:10.684Z,7.10
2023-02-16T06:18:39.290Z,8.70
2023-02-16T06:21:07.670Z,5.50
2023-02-16T06:23:36.018Z,7.20
2023-02-16T06:26:05.044Z,5.70
2023-02-16T06:28:33.937Z,7.20
2023-02-16T06:31:03.201Z,9.30
2023-02-16T06:33:31.830Z,8.70
2023-02-16T06:36:01.272Z,7.30
2023-02-16T06:38:30.439Z,9.10
2023-02-16T06:40:58.911Z,9.30
2023-02-16T06:43:28.757Z,8.90
2023-02-16T06:45:58.329Z,8.20
2023-02-16T06:48:27.227Z,9.00
2023-02-16T06:50:55.708Z,10.70
2023-02-16T06:53:25.722Z,10.50
2023-02-16T06:55:54.308Z,13.90
2023-02-16T06:58:22.795Z,14.70
2023-02-16T07:00:51.314Z,12.20
2023-02-16T07:03:19.873Z,13.40
2023-02-16T07:05:49.674Z,11.90
2023-02-16T07:08:18.254Z,9.10
2023-02-16T07:10:50.434Z,12.10
2023-02-16T07:13:18.936Z,12.60
2023-02-16T07:15:47.698Z,11.60
2023-02-16T07:18:16.702Z,10.50
2023-02-16T07:20:45.992Z,10.10
2023-02-16T07:23:14.378Z,14.20
2023-02-16T07:25:42.751Z,9.70
2023-02-16T07:28:12.471Z,9.50
2023-02-16T07:30:41.358Z,26.20
2023-02-16T07:33:10.050Z,13.00
2023-02-16T07:35:38.423Z,10.60
2023-02-16T07:38:06.908Z,9.10
2023-02-16T07:40:36.102Z,9.30
2023-02-16T07:43:07.662Z,13.60
2023-02-16T07:45:36.657Z,9.60
2023-02-16T07:48:05.549Z,8.50
2023-02-16T07:50:34.434Z,11.90
2023-02-16T07:53:03.325Z,39.40
2023-02-16T07:55:33.146Z,19.60
2023-02-16T07:58:05.000Z,14.20
2023-02-16T08:00:35.019Z,22.20
2023-02-16T08:03:03.978Z,74.70
2023-02-16T08:05:34.375Z,24.40
2023-02-16T08:08:02.838Z,16.60
2023-02-16T08:10:36.658Z,10.10
2023-02-16T08:13:05.321Z,11.70
2023-02-16T08:15:33.909Z,9.80
2023-02-16T08:18:02.800Z,9.70
2023-02-16T08:20:48.194Z,36.10
2023-02-16T08:23:19.633Z,13.20
2023-02-16T08:25:48.628Z,13.00
2023-02-16T08:28:17.630Z,6.00
2023-02-16T08:30:46.316Z,10.60
2023-02-16T08:33:15.103Z,11.00
2023-02-16T08:38:13.914Z,11.40
2023-02-16T08:40:48.878Z,15.70
2023-02-16T08:43:17.532Z,21.70
2023-02-16T08:45:51.996Z,13.10
2023-02-16T08:48:20.439Z,42.30
2023-02-16T08:50:55.275Z,48.00
2023-02-16T08:53:25.496Z,17.10
2023-02-16T08:55:57.873Z,17.50
2023-02-16T08:58:27.163Z,42.00
2023-02-16T09:00:55.628Z,13.00
2023-02-16T09:03:25.383Z,8.80
2023-02-16T09:05:55.279Z,16.70
2023-02-16T09:08:23.765Z,17.70
2023-02-16T09:10:52.142Z,14.10
2023-02-16T09:13:22.138Z,11.00
2023-02-16T09:15:51.258Z,12.70
2023-02-16T09:18:23.232Z,9.60
2023-02-16T09:20:52.020Z,11.50
2023-02-16T09:23:22.152Z,13.70
2023-02-16T09:25:50.681Z,29.10
2023-02-16T09:28:19.308Z,65.40
2023-02-16T09:30:47.825Z,39.80
2023-02-16T09:33:17.916Z,68.50
2023-02-16T09:35:46.499Z,58.20
2023-02-16T09:38:17.135Z,45.20
2023-02-16T09:40:46.130Z,24.60
2023-02-16T09:43:36.016Z,22.10
2023-02-16T09:46:09.291Z,26.30
2023-02-16T09:48:38.421Z,45.40
2023-02-16T09:51:33.611Z,45.20
2023-02-16T09:54:10.038Z,32.90
2023-02-16T09:56:40.685Z,42.70
2023-02-16T09:59:14.771Z,12.40
2023-02-16T10:01:49.468Z,25.70
2023-02-16T10:04:44.257Z,35.70
2023-02-16T10:07:20.677Z,17.00
2023-02-16T10:09:51.372Z,15.20
2023-02-16T10:12:24.468Z,20.10
2023-02-16T10:14:54.726Z,14.20
2023-02-16T10:17:36.183Z,14.30
2023-02-16T10:20:23.524Z,18.80
2023-02-16T10:23:25.173Z,13.60
2023-02-16T10:25:57.754Z,10.50
2023-02-16T10:28:48.666Z,11.90
2023-02-16T10:31:20.921Z,12.00
2023-02-16T10:34:41.670Z,34.50
2023-02-16T10:42:33.729Z,36.60
2023-02-16T10:45:25.238Z,35.10
2023-02-16T10:47:55.786Z,28.90
2023-02-16T10:50:57.446Z,22.00
2023-02-16T10:53:32.074Z,10.10
2023-02-16T10:56:01.706Z,26.50
2023-02-16T10:58:39.303Z,12.90
2023-02-16T11:01:42.950Z,23.30
2023-02-16T11:04:40.255Z,12.80
2023-02-16T11:07:12.226Z,11.70
2023-02-16T11:09:41.394Z,13.90
2023-02-16T11:12:40.939Z,12.60
2023-02-16T11:15:17.008Z,20.80
2023-02-16T11:17:51.113Z,24.70
2023-02-16T11:20:45.196Z,17.80
2023-02-16T11:23:41.860Z,16.60
2023-02-16T11:26:10.406Z,11.70
2023-02-16T11:28:46.697Z,11.40
2023-02-16T11:31:34.183Z,8.70
2023-02-16T11:34:35.073Z,9.10
2023-02-16T11:37:13.898Z,11.00
2023-02-16T11:39:50.679Z,11.30
2023-02-16T11:42:27.965Z,9.10
2023-02-16T11:44:58.018Z,10.80
2023-02-16T11:47:28.716Z,10.50
2023-02-16T11:50:24.131Z,9.60
2023-02-16T11:52:55.174Z,9.50
2023-02-16T11:55:33.508Z,8.10
2023-02-16T11:58:22.969Z,22.40
2023-02-16T12:01:37.430Z,13.80
2023-02-16T12:04:20.760Z,57.00
2023-02-16T12:07:17.975Z,10.20
2023-02-16T12:09:53.974Z,10.70
2023-02-16T12:12:37.366Z,12.40
2023-02-16T12:15:15.415Z,8.30
2023-02-16T12:17:50.963Z,9.10
2023-02-16T12:20:37.955Z,8.70
2023-02-16T12:23:41.794Z,10.70
2023-02-16T12:26:19.296Z,9.80
2023-02-16T12:28:59.444Z,8.10
2023-02-16T12:32:05.055Z,11.50
2023-02-16T12:34:37.880Z,9.00
2023-02-16T12:37:09.233Z,11.20
2023-02-16T12:39:47.034Z,12.20
2023-02-16T12:42:30.755Z,12.50
2023-02-16T12:45:04.170Z,11.10
2023-02-16T12:47:37.061Z,9.00
2023-02-16T12:50:28.177Z,8.60
2023-02-16T12:53:17.747Z,10.30
2023-02-16T12:55:57.083Z,10.60
2023-02-16T12:58:42.800Z,9.80
2023-02-16T13:01:14.932Z,14.70
2023-02-16T13:03:51.065Z,12.00
2023-02-16T13:06:44.986Z,10.10
2023-02-16T13:09:34.360Z,9.60
2023-02-16T13:12:31.723Z,31.60
2023-02-16T13:15:14.418Z,48.00
2023-02-16T13:18:01.256Z,11.70
2023-02-16T13:20:33.224Z,6.40
2023-02-16T13:23:13.491Z,9.70
2023-02-16T13:25:57.263Z,12.60
2023-02-16T13:29:00.914Z,7.60
2023-02-16T13:31:56.596Z,10.90
2023-02-16T13:34:38.656Z,16.30
2023-02-16T13:37:58.551Z,40.60
2023-02-16T13:40:45.968Z,34.20
2023-02-16T13:43:30.432Z,9.40
2023-02-16T13:45:59.562Z,11.10
2023-02-16T13:48:33.639Z,6.70
2023-02-16T13:51:04.513Z,10.40
2023-02-16T13:53:38.954Z,11.50
2023-02-16T13:56:23.595Z,10.30
2023-02-16T13:58:53.065Z,21.40
2023-02-16T14:01:39.783Z,36.10
2023-02-16T14:04:32.317Z,27.80
2023-02-16T14:07:01.532Z,30.80
2023-02-16T14:09:39.359Z,19.50
2023-02-16T14:12:32.203Z,18.10
2023-02-16T14:15:05.507Z,26.00
2023-02-16T14:17:35.190Z,20.50
2023-02-16T14:22:21.403Z,11.40
2023-02-16T14:24:53.426Z,10.50
2023-02-16T14:27:41.514Z,8.80
2023-02-16T14:30:27.194Z,8.20
2023-02-16T14:33:15.869Z,11.40
2023-02-16T14:36:14.340Z,12.00
2023-02-16T14:38:41.802Z,58.80
2023-02-16T14:41:25.539Z,26.20
2023-02-16T14:44:25.437Z,40.50
2023-02-16T14:47:15.140Z,20.20
2023-02-16T14:49:56.842Z,46.30
2023-02-16T14:52:45.490Z,41.50
2023-02-16T14:55:25.751Z,47.70
2023-02-16T14:58:03.757Z,25.80
2023-02-16T15:00:53.440Z,13.70
2023-02-16T15:03:22.248Z,12.60
2023-02-16T15:08:34.767Z,13.00
2023-02-16T15:11:11.896Z,12.80
2023-02-16T15:13:42.474Z,16.60
2023-02-16T15:16:13.293Z,13.50
2023-02-16T15:18:47.256Z,12.90
2023-02-16T15:21:22.671Z,13.80
2023-02-16T15:23:52.750Z,14.70
2023-02-16T15:26:25.678Z,13.00
2023-02-16T15:29:00.524Z,14.20
2023-02-16T15:31:36.423Z,15.50
2023-02-16T15:34:13.250Z,15.30
2023-02-16T15:36:43.115Z,12.30
2023-02-16T15:39:48.447Z,13.60
2023-02-16T15:42:21.603Z,14.20
2023-02-16T15:44:49.064Z,21.30
2023-02-16T15:47:21.673Z,12.30
2023-02-16T15:49:48.998Z,13.30
2023-02-16T15:52:25.364Z,14.20
2023-02-16T15:54:52.198Z,13.20
2023-02-16T15:57:36.257Z,12.30
2023-02-16T18:23:01.049Z,18.90
2023-02-16T18:25:29.678Z,23.10
2023-02-16T18:27:59.073Z,15.10
2023-02-16T18:30:27.667Z,21.80
2023-02-16T18:32:56.859Z,21.80
2023-02-16T18:35:25.446Z,20.70
2023-02-16T18:37:54.656Z,17.70
2023-02-16T18:40:23.335Z,18.10
2023-02-16T18:42:52.536Z,16.40
2023-02-16T18:45:20.918Z,22.10
2023-02-16T18:47:50.013Z,22.10
2023-02-16T18:50:18.394Z,19.60
2023-02-16T18:52:47.497Z,17.70
2023-02-16T18:55:16.599Z,18.20
2023-02-16T18:57:44.977Z,16.60
2023-02-16T19:00:15.000Z,17.10
2023-02-16T19:05:11.852Z,21.00
2023-02-16T19:07:40.441Z,19.60
2023-02-16T19:10:12.308Z,16.50
2023-02-16T19:12:40.896Z,20.20
2023-02-16T19:15:09.899Z,21.70
2023-02-16T19:17:39.392Z,20.00
2023-02-16T19:20:11.885Z,22.70
2023-02-16T19:22:40.451Z,18.40
2023-02-16T19:25:09.242Z,18.30
2023-02-16T19:27:37.722Z,21.30
2023-02-16T19:30:07.291Z,16.60
2023-02-16T19:32:35.826Z,20.20
2023-02-16T19:35:05.122Z,18.00
2023-02-16T19:37:34.111Z,17.50
2023-02-16T19:40:03.205Z,20.50
2023-02-16T19:42:31.692Z,14.10
2023-02-16T19:45:00.373Z,18.60
2023-02-16T19:47:28.960Z,19.70
2023-02-16T19:49:57.756Z,19.60
2023-02-16T19:52:26.237Z,18.00
2023-02-16T19:54:54.924Z,19.30
2023-02-16T19:57:23.621Z,18.50
2023-02-16T19:59:51.993Z,17.50
2023-02-16T20:02:20.504Z,23.40
2023-02-16T20:04:48.856Z,19.10
2023-02-16T20:07:19.288Z,21.20
2023-02-16T20:09:48.385Z,18.70
2023-02-16T20:12:16.772Z,17.90
2023-02-16T20:14:46.480Z,20.60
2023-02-16T20:17:15.586Z,20.00
2023-02-16T20:19:44.371Z,14.80
2023-02-16T20:22:13.266Z,19.90
2023-02-16T20:24:41.650Z,21.10
2023-02-16T20:27:10.439Z,20.70
2023-02-16T20:29:39.025Z,18.20
2023-02-16T20:32:08.383Z,21.80
2023-02-16T20:34:37.951Z,20.00
2023-02-16T20:37:06.731Z,21.70
2023-02-16T20:39:35.731Z,18.90
2023-02-16T20:42:04.414Z,21.20
2023-02-16T20:44:33.004Z,16.80
2023-02-16T20:47:01.591Z,16.30
2023-02-16T20:49:30.377Z,13.30
2023-02-16T20:51:58.759Z,18.10
2023-02-16T20:54:27.140Z,17.60
2023-02-16T20:56:55.628Z,20.60
2023-02-16T20:59:24.005Z,16.90
2023-02-16T21:01:53.106Z,18.60
2023-02-16T21:04:23.232Z,20.50
2023-02-16T21:06:53.552Z,21.50
2023-02-16T21:09:22.140Z,18.70
2023-02-16T21:11:50.725Z,17.30
2023-02-16T21:14:19.516Z,19.10
2023-02-16T21:16:48.926Z,18.60
2023-02-16T21:19:23.316Z,15.40
2023-02-16T21:21:52.857Z,18.00
2023-02-16T21:24:21.555Z,18.90
2023-02-16T21:26:49.933Z,15.20
2023-02-16T21:29:18.412Z,16.30
2023-02-16T21:31:46.893Z,16.40
2023-02-16T21:34:15.933Z,17.10
2023-02-16T21:36:44.683Z,16.80
2023-02-16T21:39:13.581Z,18.40
2023-02-16T21:41:41.894Z,17.20
2023-02-16T21:44:14.591Z,18.10
2023-02-16T21:49:15.193Z,20.80
2023-02-16T21:51:44.010Z,21.00
2023-02-16T21:54:14.914Z,19.20
2023-02-16T21:56:45.179Z,21.50
2023-02-16T21:59:15.936Z,18.10
2023-02-16T22:01:48.980Z,21.00
2023-02-16T22:04:19.664Z,18.30
2023-02-16T22:06:49.717Z,18.90
2023-02-16T22:09:20.307Z,22.80
2023-02-16T22:11:49.365Z,19.50
2023-02-16T22:14:17.758Z,19.90
2023-02-16T22:16:48.536Z,20.10
2023-02-16T22:19:18.106Z,17.50
2023-02-16T22:21:47.008Z,18.80
2023-02-16T22:24:17.252Z,19.10
2023-02-16T22:26:49.699Z,17.50
2023-02-16T22:29:18.588Z,18.20
2023-02-16T22:31:48.385Z,20.00
2023-02-16T22:34:19.242Z,22.50
2023-02-16T22:36:48.244Z,19.70
2023-02-16T22:39:17.316Z,17.00
2023-02-16T22:41:45.623Z,17.70
2023-02-16T22:44:15.954Z,18.10
2023-02-16T22:46:44.232Z,18.00
2023-02-16T22:49:15.495Z,18.70
2023-02-16T22:51:43.963Z,20.40
2023-02-16T22:54:17.055Z,18.30
2023-02-16T22:56:45.442Z,17.50
2023-02-16T22:59:13.825Z,18.20
2023-02-16T23:01:42.413Z,16.10
2023-02-16T23:04:15.337Z,17.40
2023-02-16T23:06:47.056Z,17.40
2023-02-16T23:09:20.967Z,20.10
2023-02-16T23:11:50.064Z,17.60
2023-02-16T23:14:19.135Z,22.30
2023-02-16T23:16:52.025Z,16.60
2023-02-16T23:19:25.038Z,17.70
2023-02-16T23:21:53.650Z,19.40
2023-02-16T23:24:23.156Z,19.60
2023-02-16T23:26:52.548Z,22.10
2023-02-16T23:29:21.128Z,18.40
2023-02-16T23:31:51.717Z,19.30
2023-02-16T23:34:20.585Z,16.70
2023-02-16T23:36:49.342Z,16.50
2023-02-16T23:39:18.455Z,15.30
2023-02-16T23:41:46.819Z,18.40
2023-02-16T23:44:15.415Z,15.00
2023-02-16T23:46:43.729Z,18.80
2023-02-16T23:49:12.126Z,18.90
2023-02-16T23:51:41.472Z,19.30
2023-02-16T23:54:11.709Z,18.10
2023-02-16T23:56:40.113Z,15.60
2023-02-16T23:59:08.565Z,17.90
